sensor_id;sensor_type;location;lat;lon;timestamp;temperature;humidity
62259;DHT22;48241;48.824;10.102;2022-11-15T00:02:08;12.00;85.10
62259;DHT22;48241;48.824;10.102;2022-11-15T00:04:33;11.80;86.80
62259;DHT22;48241;48.824;10.102;2022-11-15T00:06:59;11.80;85.10
62259;DHT22;48241;48.824;10.102;2022-11-15T00:09:24;11.80;87.50
62259;DHT22;48241;48.824;10.102;2022-11-15T00:11:51;12.00;88.20
62259;DHT22;48241;48.824;10.102;2022-11-15T00:14:17;12.00;84.60
62259;DHT22;48241;48.824;10.102;2022-11-15T00:16:43;12.00;85.40
62259;DHT22;48241;48.824;10.102;2022-11-15T00:19:09;12.10;86.80
62259;DHT22;48241;48.824;10.102;2022-11-15T00:21:34;12.10;86.70
62259;DHT22;48241;48.824;10.102;2022-11-15T00:24:00;12.20;86.90
62259;DHT22;48241;48.824;10.102;2022-11-15T00:26:25;12.00;86.30
62259;DHT22;48241;48.824;10.102;2022-11-15T00:28:52;11.90;87.20
62259;DHT22;48241;48.824;10.102;2022-11-15T00:31:19;11.70;86.80
62259;DHT22;48241;48.824;10.102;2022-11-15T00:33:44;11.60;87.40
62259;DHT22;48241;48.824;10.102;2022-11-15T00:36:10;11.70;87.40
62259;DHT22;48241;48.824;10.102;2022-11-15T00:38:38;11.80;87.40
62259;DHT22;48241;48.824;10.102;2022-11-15T00:41:04;11.90;88.80
62259;DHT22;48241;48.824;10.102;2022-11-15T00:43:30;11.80;87.00
62259;DHT22;48241;48.824;10.102;2022-11-15T00:45:56;11.80;87.20
62259;DHT22;48241;48.824;10.102;2022-11-15T00:48:22;11.60;86.60
62259;DHT22;48241;48.824;10.102;2022-11-15T00:50:48;11.40;89.10
62259;DHT22;48241;48.824;10.102;2022-11-15T00:53:14;11.40;87.90
62259;DHT22;48241;48.824;10.102;2022-11-15T00:55:40;11.50;88.40
62259;DHT22;48241;48.824;10.102;2022-11-15T00:58:05;11.50;88.20
62259;DHT22;48241;48.824;10.102;2022-11-15T01:00:31;11.50;89.70
62259;DHT22;48241;48.824;10.102;2022-11-15T01:02:56;11.50;87.60
62259;DHT22;48241;48.824;10.102;2022-11-15T01:05:22;11.50;89.90
62259;DHT22;48241;48.824;10.102;2022-11-15T01:07:52;11.40;88.60
62259;DHT22;48241;48.824;10.102;2022-11-15T01:10:18;11.50;85.70
62259;DHT22;48241;48.824;10.102;2022-11-15T01:12:43;11.50;87.00
62259;DHT22;48241;48.824;10.102;2022-11-15T01:15:09;11.60;87.20
62259;DHT22;48241;48.824;10.102;2022-11-15T01:17:35;11.50;87.10
62259;DHT22;48241;48.824;10.102;2022-11-15T01:20:00;11.60;84.90
62259;DHT22;48241;48.824;10.102;2022-11-15T01:22:26;11.70;85.80
62259;DHT22;48241;48.824;10.102;2022-11-15T01:24:52;11.60;85.40
62259;DHT22;48241;48.824;10.102;2022-11-15T01:27:17;11.80;86.80
62259;DHT22;48241;48.824;10.102;2022-11-15T01:29:43;12.00;84.50
62259;DHT22;48241;48.824;10.102;2022-11-15T01:32:08;12.00;84.30
62259;DHT22;48241;48.824;10.102;2022-11-15T01:34:34;12.00;84.60
62259;DHT22;48241;48.824;10.102;2022-11-15T01:37:00;11.90;84.90
62259;DHT22;48241;48.824;10.102;2022-11-15T01:39:25;11.80;83.50
62259;DHT22;48241;48.824;10.102;2022-11-15T01:41:51;11.90;83.10
62259;DHT22;48241;48.824;10.102;2022-11-15T01:44:44;11.90;85.00
62259;DHT22;48241;48.824;10.102;2022-11-15T01:47:24;11.90;85.00
62259;DHT22;48241;48.824;10.102;2022-11-15T01:50:04;11.80;83.20
62259;DHT22;48241;48.824;10.102;2022-11-15T01:52:32;11.90;83.80
62259;DHT22;48241;48.824;10.102;2022-11-15T01:55:11;12.00;84.30
62259;DHT22;48241;48.824;10.102;2022-11-15T01:57:39;12.00;86.70
62259;DHT22;48241;48.824;10.102;2022-11-15T02:00:07;11.90;84.80
62259;DHT22;48241;48.824;10.102;2022-11-15T02:02:33;11.90;84.30
62259;DHT22;48241;48.824;10.102;2022-11-15T02:07:32;12.30;85.60
62259;DHT22;48241;48.824;10.102;2022-11-15T02:10:04;12.50;85.80
62259;DHT22;48241;48.824;10.102;2022-11-15T02:12:32;12.60;85.50
62259;DHT22;48241;48.824;10.102;2022-11-15T02:14:58;12.50;84.50
62259;DHT22;48241;48.824;10.102;2022-11-15T02:20:42;12.10;84.70
62259;DHT22;48241;48.824;10.102;2022-11-15T02:29:05;11.50;87.10
62259;DHT22;48241;48.824;10.102;2022-11-15T02:34:50;10.70;90.40
62259;DHT22;48241;48.824;10.102;2022-11-15T02:37:33;10.70;90.30
62259;DHT22;48241;48.824;10.102;2022-11-15T02:42:36;10.80;90.00
62259;DHT22;48241;48.824;10.102;2022-11-15T02:45:29;10.90;90.30
62259;DHT22;48241;48.824;10.102;2022-11-15T02:47:58;10.80;90.60
62259;DHT22;48241;48.824;10.102;2022-11-15T02:50:27;10.70;90.20
62259;DHT22;48241;48.824;10.102;2022-11-15T02:52:54;10.90;90.50
62259;DHT22;48241;48.824;10.102;2022-11-15T02:55:34;10.60;90.60
62259;DHT22;48241;48.824;10.102;2022-11-15T03:00:50;10.50;91.10
62259;DHT22;48241;48.824;10.102;2022-11-15T03:03:56;10.40;91.30
62259;DHT22;48241;48.824;10.102;2022-11-15T03:09:03;10.10;92.00
62259;DHT22;48241;48.824;10.102;2022-11-15T03:11:34;10.00;91.30
62259;DHT22;48241;48.824;10.102;2022-11-15T03:14:20;10.00;91.80
62259;DHT22;48241;48.824;10.102;2022-11-15T03:21:53;9.60;92.20
62259;DHT22;48241;48.824;10.102;2022-11-15T03:24:21;9.60;92.20
62259;DHT22;48241;48.824;10.102;2022-11-15T03:26:48;9.50;92.50
62259;DHT22;48241;48.824;10.102;2022-11-15T03:29:19;9.50;93.00
62259;DHT22;48241;48.824;10.102;2022-11-15T03:31:51;9.60;93.10
62259;DHT22;48241;48.824;10.102;2022-11-15T03:36:44;9.30;93.60
62259;DHT22;48241;48.824;10.102;2022-11-15T03:39:11;9.20;93.90
62259;DHT22;48241;48.824;10.102;2022-11-15T03:41:47;9.20;94.40
62259;DHT22;48241;48.824;10.102;2022-11-15T03:49:44;9.10;94.90
62259;DHT22;48241;48.824;10.102;2022-11-15T03:52:12;9.00;95.10
62259;DHT22;48241;48.824;10.102;2022-11-15T03:54:47;9.00;95.30
62259;DHT22;48241;48.824;10.102;2022-11-15T03:57:13;8.70;96.10
62259;DHT22;48241;48.824;10.102;2022-11-15T03:59:39;8.80;95.90
62259;DHT22;48241;48.824;10.102;2022-11-15T04:02:04;8.70;95.60
62259;DHT22;48241;48.824;10.102;2022-11-15T04:04:30;8.80;95.50
62259;DHT22;48241;48.824;10.102;2022-11-15T04:06:55;8.90;95.40
62259;DHT22;48241;48.824;10.102;2022-11-15T04:09:21;8.90;95.30
62259;DHT22;48241;48.824;10.102;2022-11-15T04:11:46;8.90;95.30
62259;DHT22;48241;48.824;10.102;2022-11-15T04:14:12;9.10;94.90
62259;DHT22;48241;48.824;10.102;2022-11-15T04:16:37;9.00;94.70
62259;DHT22;48241;48.824;10.102;2022-11-15T04:19:03;9.10;94.80
62259;DHT22;48241;48.824;10.102;2022-11-15T04:21:47;9.20;94.60
62259;DHT22;48241;48.824;10.102;2022-11-15T04:24:31;9.10;94.00
62259;DHT22;48241;48.824;10.102;2022-11-15T04:26:57;9.00;94.40
62259;DHT22;48241;48.824;10.102;2022-11-15T04:29:22;9.10;94.40
62259;DHT22;48241;48.824;10.102;2022-11-15T04:32:01;9.00;94.30
62259;DHT22;48241;48.824;10.102;2022-11-15T04:34:27;8.90;94.20
62259;DHT22;48241;48.824;10.102;2022-11-15T04:36:53;9.00;94.20
62259;DHT22;48241;48.824;10.102;2022-11-15T04:39:37;9.00;94.70
62259;DHT22;48241;48.824;10.102;2022-11-15T04:42:03;9.00;94.20
62259;DHT22;48241;48.824;10.102;2022-11-15T04:44:29;9.00;94.60
62259;DHT22;48241;48.824;10.102;2022-11-15T04:46:54;9.10;94.80
62259;DHT22;48241;48.824;10.102;2022-11-15T04:49:20;8.90;94.80
62259;DHT22;48241;48.824;10.102;2022-11-15T04:51:46;8.70;95.30
62259;DHT22;48241;48.824;10.102;2022-11-15T04:54:12;8.80;95.40
62259;DHT22;48241;48.824;10.102;2022-11-15T04:56:37;8.70;95.20
62259;DHT22;48241;48.824;10.102;2022-11-15T04:59:03;8.60;95.20
62259;DHT22;48241;48.824;10.102;2022-11-15T05:01:29;8.60;95.40
62259;DHT22;48241;48.824;10.102;2022-11-15T05:03:54;8.50;95.90
62259;DHT22;48241;48.824;10.102;2022-11-15T05:06:38;8.60;95.90
62259;DHT22;48241;48.824;10.102;2022-11-15T05:09:04;8.70;95.50
62259;DHT22;48241;48.824;10.102;2022-11-15T05:11:30;8.70;95.00
62259;DHT22;48241;48.824;10.102;2022-11-15T05:13:56;8.90;94.30
62259;DHT22;48241;48.824;10.102;2022-11-15T05:16:21;8.90;94.60
62259;DHT22;48241;48.824;10.102;2022-11-15T05:18:51;9.10;94.20
62259;DHT22;48241;48.824;10.102;2022-11-15T05:21:16;9.20;93.70
62259;DHT22;48241;48.824;10.102;2022-11-15T05:23:42;9.40;93.70
62259;DHT22;48241;48.824;10.102;2022-11-15T05:26:08;9.50;93.20
62259;DHT22;48241;48.824;10.102;2022-11-15T05:28:34;9.70;91.60
62259;DHT22;48241;48.824;10.102;2022-11-15T05:33:32;10.00;91.70
62259;DHT22;48241;48.824;10.102;2022-11-15T05:36:04;10.10;91.00
62259;DHT22;48241;48.824;10.102;2022-11-15T05:38:30;10.30;91.10
62259;DHT22;48241;48.824;10.102;2022-11-15T05:40:57;10.50;90.70
62259;DHT22;48241;48.824;10.102;2022-11-15T05:43:23;10.50;90.80
62259;DHT22;48241;48.824;10.102;2022-11-15T05:45:49;10.60;90.60
62259;DHT22;48241;48.824;10.102;2022-11-15T05:48:15;10.40;90.80
62259;DHT22;48241;48.824;10.102;2022-11-15T05:50:43;10.40;90.70
62259;DHT22;48241;48.824;10.102;2022-11-15T05:53:13;10.50;91.00
62259;DHT22;48241;48.824;10.102;2022-11-15T05:55:40;10.50;91.10
62259;DHT22;48241;48.824;10.102;2022-11-15T05:58:06;10.40;90.70
62259;DHT22;48241;48.824;10.102;2022-11-15T06:00:32;10.60;90.90
62259;DHT22;48241;48.824;10.102;2022-11-15T06:02:58;10.50;90.50
62259;DHT22;48241;48.824;10.102;2022-11-15T06:05:23;10.50;90.70
62259;DHT22;48241;48.824;10.102;2022-11-15T06:07:49;10.60;91.00
62259;DHT22;48241;48.824;10.102;2022-11-15T06:10:15;10.30;90.60
62259;DHT22;48241;48.824;10.102;2022-11-15T06:12:41;10.20;91.70
62259;DHT22;48241;48.824;10.102;2022-11-15T06:15:07;10.20;90.60
62259;DHT22;48241;48.824;10.102;2022-11-15T06:17:33;10.30;90.20
62259;DHT22;48241;48.824;10.102;2022-11-15T06:19:58;10.30;90.30
62259;DHT22;48241;48.824;10.102;2022-11-15T06:22:24;10.20;89.60
62259;DHT22;48241;48.824;10.102;2022-11-15T06:24:50;10.40;90.70
62259;DHT22;48241;48.824;10.102;2022-11-15T06:27:15;10.40;89.20
62259;DHT22;48241;48.824;10.102;2022-11-15T06:29:41;10.50;90.40
62259;DHT22;48241;48.824;10.102;2022-11-15T06:32:07;10.40;89.90
62259;DHT22;48241;48.824;10.102;2022-11-15T06:34:32;10.30;89.70
62259;DHT22;48241;48.824;10.102;2022-11-15T06:36:58;10.30;88.90
62259;DHT22;48241;48.824;10.102;2022-11-15T06:39:23;10.40;86.60
62259;DHT22;48241;48.824;10.102;2022-11-15T06:41:49;10.40;89.00
62259;DHT22;48241;48.824;10.102;2022-11-15T06:44:14;10.40;87.50
62259;DHT22;48241;48.824;10.102;2022-11-15T06:46:41;10.40;85.50
62259;DHT22;48241;48.824;10.102;2022-11-15T06:49:07;10.50;86.60
62259;DHT22;48241;48.824;10.102;2022-11-15T06:51:32;10.50;87.40
62259;DHT22;48241;48.824;10.102;2022-11-15T06:53:58;10.60;88.70
62259;DHT22;48241;48.824;10.102;2022-11-15T06:56:24;10.60;87.80
62259;DHT22;48241;48.824;10.102;2022-11-15T06:58:49;10.70;88.00
62259;DHT22;48241;48.824;10.102;2022-11-15T07:01:15;10.70;86.20
62259;DHT22;48241;48.824;10.102;2022-11-15T07:03:42;10.70;85.90
62259;DHT22;48241;48.824;10.102;2022-11-15T07:06:08;10.80;88.60
62259;DHT22;48241;48.824;10.102;2022-11-15T07:08:35;11.00;87.00
62259;DHT22;48241;48.824;10.102;2022-11-15T07:11:04;11.10;86.10
62259;DHT22;48241;48.824;10.102;2022-11-15T07:13:31;11.10;85.60
62259;DHT22;48241;48.824;10.102;2022-11-15T07:16:08;11.40;86.20
62259;DHT22;48241;48.824;10.102;2022-11-15T07:18:35;11.30;85.40
62259;DHT22;48241;48.824;10.102;2022-11-15T07:21:06;11.40;85.80
62259;DHT22;48241;48.824;10.102;2022-11-15T07:23:39;11.50;86.10
62259;DHT22;48241;48.824;10.102;2022-11-15T07:26:05;11.50;85.70
62259;DHT22;48241;48.824;10.102;2022-11-15T07:28:31;11.60;83.10
62259;DHT22;48241;48.824;10.102;2022-11-15T07:30:57;11.60;82.80
62259;DHT22;48241;48.824;10.102;2022-11-15T07:33:22;11.30;83.20
62259;DHT22;48241;48.824;10.102;2022-11-15T07:35:48;11.40;85.30
62259;DHT22;48241;48.824;10.102;2022-11-15T07:38:14;11.20;86.30
62259;DHT22;48241;48.824;10.102;2022-11-15T07:40:46;11.40;85.70
62259;DHT22;48241;48.824;10.102;2022-11-15T07:43:12;11.50;86.20
62259;DHT22;48241;48.824;10.102;2022-11-15T07:45:45;11.20;87.50
62259;DHT22;48241;48.824;10.102;2022-11-15T07:48:11;11.30;87.70
62259;DHT22;48241;48.824;10.102;2022-11-15T07:50:40;11.30;87.30
62259;DHT22;48241;48.824;10.102;2022-11-15T07:53:06;11.40;86.60
62259;DHT22;48241;48.824;10.102;2022-11-15T07:55:31;11.50;86.10
62259;DHT22;48241;48.824;10.102;2022-11-15T07:58:04;11.40;84.30
62259;DHT22;48241;48.824;10.102;2022-11-15T08:00:30;11.30;84.10
62259;DHT22;48241;48.824;10.102;2022-11-15T08:03:11;11.10;88.20
62259;DHT22;48241;48.824;10.102;2022-11-15T08:05:38;11.20;87.90
62259;DHT22;48241;48.824;10.102;2022-11-15T08:08:04;11.20;88.20
62259;DHT22;48241;48.824;10.102;2022-11-15T08:10:30;11.00;89.40
62259;DHT22;48241;48.824;10.102;2022-11-15T08:12:59;11.10;88.90
62259;DHT22;48241;48.824;10.102;2022-11-15T08:15:26;11.20;86.30
62259;DHT22;48241;48.824;10.102;2022-11-15T08:18:05;11.20;84.60
62259;DHT22;48241;48.824;10.102;2022-11-15T08:23:50;11.00;88.70
62259;DHT22;48241;48.824;10.102;2022-11-15T08:26:17;11.00;89.00
62259;DHT22;48241;48.824;10.102;2022-11-15T08:28:42;11.00;89.10
62259;DHT22;48241;48.824;10.102;2022-11-15T08:31:14;10.90;85.30
62259;DHT22;48241;48.824;10.102;2022-11-15T08:33:42;10.90;88.20
62259;DHT22;48241;48.824;10.102;2022-11-15T08:36:13;10.80;82.20
62259;DHT22;48241;48.824;10.102;2022-11-15T08:38:39;11.00;84.30
62259;DHT22;48241;48.824;10.102;2022-11-15T08:41:05;11.00;86.90
62259;DHT22;48241;48.824;10.102;2022-11-15T08:43:31;11.10;86.00
62259;DHT22;48241;48.824;10.102;2022-11-15T08:45:57;11.10;86.80
62259;DHT22;48241;48.824;10.102;2022-11-15T08:48:23;11.00;87.80
62259;DHT22;48241;48.824;10.102;2022-11-15T08:50:49;11.00;87.80
62259;DHT22;48241;48.824;10.102;2022-11-15T08:53:14;11.10;87.90
62259;DHT22;48241;48.824;10.102;2022-11-15T08:55:40;11.50;86.10
62259;DHT22;48241;48.824;10.102;2022-11-15T08:58:06;11.60;84.50
62259;DHT22;48241;48.824;10.102;2022-11-15T09:00:33;11.60;84.70
62259;DHT22;48241;48.824;10.102;2022-11-15T09:02:59;11.60;84.30
62259;DHT22;48241;48.824;10.102;2022-11-15T09:05:25;11.50;86.30
62259;DHT22;48241;48.824;10.102;2022-11-15T09:07:54;11.60;87.70
62259;DHT22;48241;48.824;10.102;2022-11-15T09:10:20;11.70;87.10
62259;DHT22;48241;48.824;10.102;2022-11-15T09:12:46;11.70;87.20
62259;DHT22;48241;48.824;10.102;2022-11-15T09:15:14;11.90;84.60
62259;DHT22;48241;48.824;10.102;2022-11-15T09:17:40;11.90;83.30
62259;DHT22;48241;48.824;10.102;2022-11-15T09:20:07;11.90;80.80
62259;DHT22;48241;48.824;10.102;2022-11-15T09:22:33;11.90;72.30
62259;DHT22;48241;48.824;10.102;2022-11-15T09:24:58;12.20;74.80
62259;DHT22;48241;48.824;10.102;2022-11-15T09:27:31;12.30;72.30
62259;DHT22;48241;48.824;10.102;2022-11-15T09:29:57;12.40;69.40
62259;DHT22;48241;48.824;10.102;2022-11-15T09:32:22;12.40;68.20
62259;DHT22;48241;48.824;10.102;2022-11-15T09:34:49;12.80;70.70
62259;DHT22;48241;48.824;10.102;2022-11-15T09:37:15;13.00;71.10
62259;DHT22;48241;48.824;10.102;2022-11-15T09:39:40;13.20;72.80
62259;DHT22;48241;48.824;10.102;2022-11-15T09:45:20;13.20;74.50
62259;DHT22;48241;48.824;10.102;2022-11-15T09:48:09;13.00;75.20
62259;DHT22;48241;48.824;10.102;2022-11-15T09:50:51;12.60;79.50
62259;DHT22;48241;48.824;10.102;2022-11-15T09:53:26;12.70;77.90
62259;DHT22;48241;48.824;10.102;2022-11-15T09:56:37;13.10;78.20
62259;DHT22;48241;48.824;10.102;2022-11-15T10:01:49;14.10;73.70
62259;DHT22;48241;48.824;10.102;2022-11-15T10:04:21;14.70;70.40
62259;DHT22;48241;48.824;10.102;2022-11-15T10:07:27;15.20;70.90
62259;DHT22;48241;48.824;10.102;2022-11-15T10:09:50;15.80;66.30
62259;DHT22;48241;48.824;10.102;2022-11-15T10:12:17;15.90;66.40
62259;DHT22;48241;48.824;10.102;2022-11-15T10:14:42;15.90;67.70
62259;DHT22;48241;48.824;10.102;2022-11-15T10:22:48;15.80;63.60
62259;DHT22;48241;48.824;10.102;2022-11-15T10:25:24;16.00;65.30
62259;DHT22;48241;48.824;10.102;2022-11-15T10:30:46;16.40;62.10
62259;DHT22;48241;48.824;10.102;2022-11-15T10:35:43;16.80;60.60
62259;DHT22;48241;48.824;10.102;2022-11-15T10:38:10;16.60;59.40
62259;DHT22;48241;48.824;10.102;2022-11-15T10:40:37;16.60;60.70
62259;DHT22;48241;48.824;10.102;2022-11-15T10:45:34;17.30;56.70
62259;DHT22;48241;48.824;10.102;2022-11-15T10:53:21;17.40;56.80
62259;DHT22;48241;48.824;10.102;2022-11-15T10:55:49;17.80;55.90
62259;DHT22;48241;48.824;10.102;2022-11-15T11:01:17;18.00;55.00
62259;DHT22;48241;48.824;10.102;2022-11-15T11:03:57;18.50;54.90
62259;DHT22;48241;48.824;10.102;2022-11-15T11:06:24;18.70;55.40
62259;DHT22;48241;48.824;10.102;2022-11-15T11:08:59;19.00;55.50
62259;DHT22;48241;48.824;10.102;2022-11-15T11:11:47;19.20;55.20
62259;DHT22;48241;48.824;10.102;2022-11-15T11:14:23;18.90;55.30
62259;DHT22;48241;48.824;10.102;2022-11-15T11:25:02;18.30;55.20
62259;DHT22;48241;48.824;10.102;2022-11-15T11:36:20;17.90;53.00
62259;DHT22;48241;48.824;10.102;2022-11-15T11:39:18;18.10;53.40
62259;DHT22;48241;48.824;10.102;2022-11-15T11:42:03;18.30;52.00
62259;DHT22;48241;48.824;10.102;2022-11-15T11:47:10;19.00;51.20
62259;DHT22;48241;48.824;10.102;2022-11-15T11:49:44;19.20;51.20
62259;DHT22;48241;48.824;10.102;2022-11-15T11:52:18;19.40;51.30
62259;DHT22;48241;48.824;10.102;2022-11-15T11:57:48;19.80;47.70
62259;DHT22;48241;48.824;10.102;2022-11-15T12:00:21;19.90;47.20
62259;DHT22;48241;48.824;10.102;2022-11-15T12:03:11;20.00;46.60
62259;DHT22;48241;48.824;10.102;2022-11-15T12:05:44;20.00;45.50
62259;DHT22;48241;48.824;10.102;2022-11-15T12:08:45;20.00;44.80
62259;DHT22;48241;48.824;10.102;2022-11-15T12:11:27;19.50;45.10
62259;DHT22;48241;48.824;10.102;2022-11-15T12:13:58;19.20;45.80
62259;DHT22;48241;48.824;10.102;2022-11-15T12:16:30;19.10;45.80
62259;DHT22;48241;48.824;10.102;2022-11-15T12:19:00;19.20;45.80
62259;DHT22;48241;48.824;10.102;2022-11-15T12:24:06;18.60;45.50
62259;DHT22;48241;48.824;10.102;2022-11-15T12:26:41;18.30;46.60
62259;DHT22;48241;48.824;10.102;2022-11-15T12:29:29;18.10;46.50
62259;DHT22;48241;48.824;10.102;2022-11-15T12:31:57;18.40;47.60
62259;DHT22;48241;48.824;10.102;2022-11-15T12:36:54;18.50;44.50
62259;DHT22;48241;48.824;10.102;2022-11-15T12:39:20;18.70;44.60
62259;DHT22;48241;48.824;10.102;2022-11-15T12:52:04;18.80;49.50
62259;DHT22;48241;48.824;10.102;2022-11-15T12:59:55;18.80;51.10
62259;DHT22;48241;48.824;10.102;2022-11-15T13:02:43;18.80;50.80
62259;DHT22;48241;48.824;10.102;2022-11-15T13:12:55;18.70;52.40
62259;DHT22;48241;48.824;10.102;2022-11-15T13:17:57;18.60;53.50
62259;DHT22;48241;48.824;10.102;2022-11-15T13:20:30;18.50;54.00
62259;DHT22;48241;48.824;10.102;2022-11-15T13:23:10;18.50;54.60
62259;DHT22;48241;48.824;10.102;2022-11-15T13:28:27;18.60;52.30
62259;DHT22;48241;48.824;10.102;2022-11-15T13:30:57;18.80;52.20
62259;DHT22;48241;48.824;10.102;2022-11-15T13:33:28;19.00;50.00
62259;DHT22;48241;48.824;10.102;2022-11-15T13:35:58;19.20;49.50
62259;DHT22;48241;48.824;10.102;2022-11-15T13:40:50;19.50;53.70
62259;DHT22;48241;48.824;10.102;2022-11-15T13:48:39;19.60;54.00
62259;DHT22;48241;48.824;10.102;2022-11-15T13:51:14;19.50;53.10
62259;DHT22;48241;48.824;10.102;2022-11-15T13:53:44;19.40;54.90
62259;DHT22;48241;48.824;10.102;2022-11-15T13:56:13;19.30;54.10
62259;DHT22;48241;48.824;10.102;2022-11-15T13:58:39;19.10;54.70
62259;DHT22;48241;48.824;10.102;2022-11-15T14:01:05;19.00;51.80
62259;DHT22;48241;48.824;10.102;2022-11-15T14:03:35;18.90;51.80
62259;DHT22;48241;48.824;10.102;2022-11-15T14:08:38;18.80;50.90
62259;DHT22;48241;48.824;10.102;2022-11-15T14:11:18;18.40;48.80
62259;DHT22;48241;48.824;10.102;2022-11-15T14:16:37;18.00;49.60
62259;DHT22;48241;48.824;10.102;2022-11-15T14:19:04;17.70;50.80
62259;DHT22;48241;48.824;10.102;2022-11-15T14:21:31;17.40;51.60
62259;DHT22;48241;48.824;10.102;2022-11-15T14:24:17;17.40;51.80
62259;DHT22;48241;48.824;10.102;2022-11-15T14:26:44;17.30;52.60
62259;DHT22;48241;48.824;10.102;2022-11-15T14:29:29;17.20;52.90
62259;DHT22;48241;48.824;10.102;2022-11-15T14:32:15;17.20;54.00
62259;DHT22;48241;48.824;10.102;2022-11-15T14:34:41;17.20;55.20
62259;DHT22;48241;48.824;10.102;2022-11-15T14:39:45;17.30;55.00
62259;DHT22;48241;48.824;10.102;2022-11-15T14:42:10;17.20;53.40
62259;DHT22;48241;48.824;10.102;2022-11-15T14:44:36;16.90;56.40
62259;DHT22;48241;48.824;10.102;2022-11-15T14:47:01;16.90;53.60
62259;DHT22;48241;48.824;10.102;2022-11-15T14:49:27;16.50;54.70
62259;DHT22;48241;48.824;10.102;2022-11-15T14:51:52;16.20;54.70
62259;DHT22;48241;48.824;10.102;2022-11-15T14:54:18;16.00;56.20
62259;DHT22;48241;48.824;10.102;2022-11-15T14:56:43;15.40;57.10
62259;DHT22;48241;48.824;10.102;2022-11-15T14:59:09;15.30;59.30
62259;DHT22;48241;48.824;10.102;2022-11-15T15:01:35;15.30;58.50
62259;DHT22;48241;48.824;10.102;2022-11-15T15:04:00;15.30;59.80
62259;DHT22;48241;48.824;10.102;2022-11-15T15:06:26;15.30;59.10
62259;DHT22;48241;48.824;10.102;2022-11-15T15:08:52;15.20;60.60
62259;DHT22;48241;48.824;10.102;2022-11-15T15:11:28;14.90;61.00
62259;DHT22;48241;48.824;10.102;2022-11-15T15:13:55;14.50;63.30
62259;DHT22;48241;48.824;10.102;2022-11-15T15:16:23;14.40;62.40
62259;DHT22;48241;48.824;10.102;2022-11-15T15:18:49;14.30;63.40
62259;DHT22;48241;48.824;10.102;2022-11-15T15:21:27;14.20;64.30
62259;DHT22;48241;48.824;10.102;2022-11-15T15:23:53;14.10;66.30
62259;DHT22;48241;48.824;10.102;2022-11-15T15:26:19;14.10;65.60
62259;DHT22;48241;48.824;10.102;2022-11-15T15:28:45;14.20;68.00
62259;DHT22;48241;48.824;10.102;2022-11-15T15:31:11;14.20;66.20
62259;DHT22;48241;48.824;10.102;2022-11-15T15:33:37;14.10;65.80
62259;DHT22;48241;48.824;10.102;2022-11-15T15:36:03;14.10;68.70
62259;DHT22;48241;48.824;10.102;2022-11-15T15:38:29;13.80;67.10
62259;DHT22;48241;48.824;10.102;2022-11-15T15:40:54;14.00;68.80
62259;DHT22;48241;48.824;10.102;2022-11-15T15:43:20;13.90;68.40
62259;DHT22;48241;48.824;10.102;2022-11-15T15:45:46;13.60;71.00
62259;DHT22;48241;48.824;10.102;2022-11-15T15:48:16;13.40;72.00
62259;DHT22;48241;48.824;10.102;2022-11-15T15:50:42;13.30;71.60
62259;DHT22;48241;48.824;10.102;2022-11-15T15:53:09;13.20;72.20
62259;DHT22;48241;48.824;10.102;2022-11-15T15:55:36;13.20;72.30
62259;DHT22;48241;48.824;10.102;2022-11-15T15:58:02;13.30;72.90
62259;DHT22;48241;48.824;10.102;2022-11-15T16:00:28;13.20;74.90
62259;DHT22;48241;48.824;10.102;2022-11-15T16:02:54;13.40;74.00
62259;DHT22;48241;48.824;10.102;2022-11-15T16:05:20;13.20;74.60
62259;DHT22;48241;48.824;10.102;2022-11-15T16:07:45;13.10;74.10
62259;DHT22;48241;48.824;10.102;2022-11-15T16:10:19;13.10;74.50
62259;DHT22;48241;48.824;10.102;2022-11-15T16:12:44;12.90;76.30
62259;DHT22;48241;48.824;10.102;2022-11-15T16:15:10;12.80;77.20
62259;DHT22;48241;48.824;10.102;2022-11-15T16:17:41;12.50;79.10
62259;DHT22;48241;48.824;10.102;2022-11-15T16:20:37;12.40;80.30
62259;DHT22;48241;48.824;10.102;2022-11-15T16:23:03;12.50;80.40
62259;DHT22;48241;48.824;10.102;2022-11-15T16:25:36;12.30;81.40
62259;DHT22;48241;48.824;10.102;2022-11-15T16:28:02;12.50;81.60
62259;DHT22;48241;48.824;10.102;2022-11-15T16:30:28;12.40;82.50
62259;DHT22;48241;48.824;10.102;2022-11-15T16:32:53;12.30;82.80
62259;DHT22;48241;48.824;10.102;2022-11-15T16:35:19;12.20;83.70
62259;DHT22;48241;48.824;10.102;2022-11-15T16:37:45;12.10;84.40
62259;DHT22;48241;48.824;10.102;2022-11-15T16:40:24;12.10;84.90
62259;DHT22;48241;48.824;10.102;2022-11-15T16:42:50;11.90;85.40
62259;DHT22;48241;48.824;10.102;2022-11-15T16:45:16;11.90;85.00
62259;DHT22;48241;48.824;10.102;2022-11-15T16:47:42;12.20;84.60
62259;DHT22;48241;48.824;10.102;2022-11-15T16:50:29;12.10;83.10
62259;DHT22;48241;48.824;10.102;2022-11-15T16:52:56;12.10;82.70
62259;DHT22;48241;48.824;10.102;2022-11-15T16:55:25;12.20;83.90
62259;DHT22;48241;48.824;10.102;2022-11-15T16:57:51;12.20;83.20
62259;DHT22;48241;48.824;10.102;2022-11-15T17:00:18;12.10;84.20
62259;DHT22;48241;48.824;10.102;2022-11-15T17:02:45;12.10;83.30
62259;DHT22;48241;48.824;10.102;2022-11-15T17:05:11;12.10;84.60
62259;DHT22;48241;48.824;10.102;2022-11-15T17:07:38;12.10;83.90
62259;DHT22;48241;48.824;10.102;2022-11-15T17:10:04;12.10;84.10
62259;DHT22;48241;48.824;10.102;2022-11-15T17:12:33;12.10;83.90
62259;DHT22;48241;48.824;10.102;2022-11-15T17:15:02;12.10;83.80
62259;DHT22;48241;48.824;10.102;2022-11-15T17:17:35;12.30;82.80
62259;DHT22;48241;48.824;10.102;2022-11-15T17:20:01;12.30;82.50
62259;DHT22;48241;48.824;10.102;2022-11-15T17:22:29;12.20;82.90
62259;DHT22;48241;48.824;10.102;2022-11-15T17:24:55;12.00;83.80
62259;DHT22;48241;48.824;10.102;2022-11-15T17:27:20;11.90;84.70
62259;DHT22;48241;48.824;10.102;2022-11-15T17:29:46;11.70;85.30
62259;DHT22;48241;48.824;10.102;2022-11-15T17:32:11;11.60;86.50
62259;DHT22;48241;48.824;10.102;2022-11-15T17:34:37;11.60;86.60
62259;DHT22;48241;48.824;10.102;2022-11-15T17:37:10;11.60;85.70
62259;DHT22;48241;48.824;10.102;2022-11-15T17:39:36;11.60;85.30
62259;DHT22;48241;48.824;10.102;2022-11-15T17:42:01;11.70;85.30
62259;DHT22;48241;48.824;10.102;2022-11-15T17:44:27;11.60;86.00
62259;DHT22;48241;48.824;10.102;2022-11-15T17:46:52;11.50;85.80
62259;DHT22;48241;48.824;10.102;2022-11-15T17:49:18;11.40;86.50
62259;DHT22;48241;48.824;10.102;2022-11-15T17:51:44;11.20;87.30